Current | Forecast
Updated: 5:00 PM JST on February 19, 2018
Observed at Ishigakijima, Japan
Temperature 73°F
Humidity 73%
Dew Point 64°F
Wind South at 9 mph
Pressure 29.95 in (Steady)
Conditions Scattered Clouds
Visibility 6.2 miles
UV 2 out of 16
Clouds (FEW) : 2200 ft
Scattered Clouds (SCT) : 10000 ft
Yesterday's Maximum 73°F
Yesterday's Minimum 68°F approx.
Yesterday's Cooling Degree Days 6 approx.
Sunrise7:16 AM JST
Sunset6:42 PM JST
Moon Rise9:22 AM JST
Moon Set9:44 PM JST
Moon PhaseMoon Phase
Waxing Crescent
Raw METARMETAR ROIG 190800Z 17008KT 140V200 9999 FEW022 SCT100 23/18 Q1014


Monday
. High: 82° F.
Tuesday
. High: 80° F.
Wednesday
. High: 80° F.
Thursday
. High: 82° F.
Friday
. High: 84° F.
Saturday
. High: 84° F.
Sunday
. High: 84° F.
Monday
. High: 84° F.

Units: English | Metric

Find the Weather for any City, State or Zipcode, or Country:

U.S. State List | Severe Weather | Tropical Storms | Ski Conditions
United States | Canada | Central America | South America | Asia | Europe | Australia | Africa | Islands

Weather Underground

© Copyright 2018
The Weather Company, LLC